createdAt,value
2022-11-19T00:00:22.700Z,100734.34
2022-11-19T00:02:54.830Z,100733.38
2022-11-19T00:05:22.547Z,100730.41
2022-11-19T00:07:51.551Z,100728.44
2022-11-19T00:10:20.794Z,100718.63
2022-11-19T00:12:57.428Z,100714.84
2022-11-19T00:15:30.301Z,100702.50
2022-11-19T00:18:00.770Z,100703.91
2022-11-19T00:20:30.151Z,100701.53
2022-11-19T00:22:59.198Z,100688.66
2022-11-19T00:25:30.055Z,100684.69
2022-11-19T00:28:00.357Z,100672.94
2022-11-19T00:33:16.593Z,100653.00
2022-11-19T00:35:46.733Z,100655.53
2022-11-19T00:38:15.720Z,100649.63
2022-11-19T00:40:44.713Z,100638.44
2022-11-19T00:43:32.372Z,100635.63
2022-11-19T00:46:01.261Z,100638.44
2022-11-19T00:48:29.781Z,100647.72
2022-11-19T00:50:58.797Z,100645.44
2022-11-19T00:53:26.666Z,100641.59
2022-11-19T00:55:55.972Z,100621.16
2022-11-19T00:58:23.671Z,100595.97
2022-11-19T01:00:55.256Z,100584.81
2022-11-19T01:03:24.834Z,100582.72
2022-11-19T01:05:54.370Z,100557.91
2022-11-19T01:08:22.700Z,100557.06
2022-11-19T01:10:50.769Z,100548.81
2022-11-19T01:13:35.349Z,100546.63
2022-11-19T01:16:41.076Z,100534.28
2022-11-19T01:19:11.591Z,100524.53
2022-11-19T01:21:39.270Z,100523.97
2022-11-19T01:24:08.352Z,100518.72
2022-11-19T01:26:36.154Z,100514.19
2022-11-19T01:29:05.530Z,100505.97
2022-11-19T01:31:33.632Z,100496.47
2022-11-19T01:34:04.654Z,100505.38
2022-11-19T01:36:33.990Z,100513.66
2022-11-19T01:39:03.128Z,100518.94
2022-11-19T01:41:33.435Z,100518.94
2022-11-19T01:44:07.848Z,100528.66
2022-11-19T01:46:39.966Z,100521.38
2022-11-19T01:49:19.434Z,100524.19
2022-11-19T01:51:51.298Z,100515.78
2022-11-19T01:54:30.315Z,100502.03
2022-11-19T01:57:06.525Z,100493.31
2022-11-19T01:59:36.969Z,100494.81
2022-11-19T02:02:06.238Z,100476.59
2022-11-19T02:04:36.944Z,100482.09
2022-11-19T02:07:07.875Z,100474.09
2022-11-19T02:09:38.581Z,100471.03
2022-11-19T02:12:16.788Z,100464.50
2022-11-19T02:15:10.605Z,100458.66
2022-11-19T02:18:03.482Z,100461.25
2022-11-19T02:28:53.131Z,100437.25
2022-11-19T02:31:22.838Z,100423.19
2022-11-19T02:40:43.522Z,100385.44
2022-11-19T02:43:18.752Z,100362.78
2022-11-19T02:46:03.600Z,100343.69
2022-11-19T02:48:39.785Z,100320.25
2022-11-19T02:51:09.621Z,100329.56
2022-11-19T02:53:38.510Z,100354.50
2022-11-19T02:56:47.505Z,100371.63
2022-11-19T02:59:37.935Z,100383.19
2022-11-19T03:02:26.843Z,100384.28
2022-11-19T03:04:56.334Z,100384.72
2022-11-19T03:07:24.590Z,100384.72
2022-11-19T03:09:56.827Z,100376.16
2022-11-19T03:13:21.901Z,100381.50
2022-11-19T03:16:12.367Z,100377.53
2022-11-19T03:19:25.257Z,100369.53
2022-11-19T03:22:04.326Z,100369.94
2022-11-19T03:24:48.697Z,100361.78
2022-11-19T03:27:39.713Z,100350.44
2022-11-19T03:30:10.279Z,100332.63
2022-11-19T03:33:06.480Z,100293.25
2022-11-19T03:35:47.619Z,100272.91
2022-11-19T03:38:22.478Z,100281.59
2022-11-19T03:40:54.622Z,100262.25
2022-11-19T03:43:32.835Z,100259.59
2022-11-19T03:46:05.626Z,100259.91
2022-11-19T03:48:41.449Z,100258.25
2022-11-19T03:51:16.959Z,100252.91
2022-11-19T03:53:49.730Z,100242.22
2022-11-19T03:56:23.468Z,100227.19
2022-11-19T03:58:54.450Z,100214.81
2022-11-19T04:01:23.811Z,100226.34
2022-11-19T04:04:12.926Z,100203.78
2022-11-19T04:06:41.334Z,100210.81
2022-11-19T04:09:14.440Z,100181.91
2022-11-19T04:14:12.463Z,100180.91
2022-11-19T04:16:41.158Z,100195.78
2022-11-19T04:19:09.505Z,100195.41
2022-11-19T04:21:37.390Z,100189.59
2022-11-19T04:24:07.360Z,100179.19
2022-11-19T04:26:37.294Z,100185.66
2022-11-19T04:29:08.401Z,100177.97
2022-11-19T04:31:37.367Z,100173.44
2022-11-19T04:34:07.226Z,100170.56
2022-11-19T04:36:38.968Z,100163.50
2022-11-19T04:39:09.450Z,100175.19
2022-11-19T04:41:39.417Z,100173.47
2022-11-19T04:44:08.348Z,100174.22
2022-11-19T04:46:37.818Z,100172.88
2022-11-19T04:49:07.392Z,100173.97
2022-11-19T04:51:37.990Z,100172.66
2022-11-19T04:54:09.502Z,100175.94
2022-11-19T04:56:38.675Z,100178.28
2022-11-19T04:59:07.809Z,100184.47
2022-11-19T05:01:39.023Z,100180.13
2022-11-19T05:04:07.879Z,100186.88
2022-11-19T05:06:37.759Z,100176.00
2022-11-19T05:09:08.457Z,100172.16
2022-11-19T05:11:38.434Z,100176.50
2022-11-19T05:14:07.549Z,100184.81
2022-11-19T05:16:36.383Z,100187.78
2022-11-19T05:19:10.048Z,100192.53
2022-11-19T05:21:39.514Z,100185.28
2022-11-19T05:24:09.731Z,100176.31
2022-11-19T05:26:38.374Z,100186.16
2022-11-19T05:29:08.539Z,100185.22
2022-11-19T05:31:37.739Z,100179.03
2022-11-19T05:34:10.435Z,100183.75
2022-11-19T05:36:39.521Z,100171.59
2022-11-19T05:39:08.604Z,100160.22
2022-11-19T05:41:37.477Z,100151.16
2022-11-19T05:44:07.101Z,100162.44
2022-11-19T05:46:35.356Z,100163.38
2022-11-19T05:49:04.251Z,100147.34
2022-11-19T05:51:33.359Z,100128.03
2022-11-19T05:54:01.060Z,100097.31
2022-11-19T05:56:31.012Z,100091.94
2022-11-19T05:59:02.911Z,100082.94
2022-11-19T06:01:33.622Z,100084.16
2022-11-19T06:04:02.378Z,100090.69
2022-11-19T06:06:34.748Z,100060.03
2022-11-19T06:09:08.603Z,100075.31
2022-11-19T06:11:54.606Z,100075.81
2022-11-19T06:14:26.635Z,100060.59
2022-11-19T06:16:59.010Z,100062.63
2022-11-19T06:19:30.568Z,100075.41
2022-11-19T06:22:00.451Z,100116.31
2022-11-19T06:24:31.529Z,100120.81
2022-11-19T06:27:01.822Z,100100.41
2022-11-19T06:29:31.552Z,100088.41
2022-11-19T06:32:01.204Z,100088.84
2022-11-19T06:34:30.009Z,100099.72
2022-11-19T06:36:59.090Z,100082.97
2022-11-19T06:39:28.859Z,100064.03
2022-11-19T06:42:18.975Z,100057.09
2022-11-19T06:44:49.156Z,100066.16
2022-11-19T06:47:17.694Z,100066.59
2022-11-19T06:49:48.261Z,100061.53
2022-11-19T06:52:20.236Z,100062.47
2022-11-19T06:54:49.569Z,100061.28
2022-11-19T06:57:17.467Z,100082.63
2022-11-19T06:59:46.387Z,100096.00
2022-11-19T07:02:17.841Z,100093.75
2022-11-19T07:04:50.724Z,100079.75
2022-11-19T07:07:20.824Z,100093.78
2022-11-19T07:09:49.571Z,100079.81
2022-11-19T07:12:18.780Z,100086.44
2022-11-19T07:14:47.393Z,100071.78
2022-11-19T07:17:16.466Z,100072.19
2022-11-19T07:19:44.442Z,100065.00
2022-11-19T07:22:13.305Z,100072.66
2022-11-19T07:24:42.285Z,100070.19
2022-11-19T07:27:10.554Z,100066.25
2022-11-19T07:29:39.026Z,100050.91
2022-11-19T07:32:08.289Z,100055.69
2022-11-19T07:34:36.701Z,100051.53
2022-11-19T07:37:06.484Z,100068.31
2022-11-19T07:39:34.987Z,100055.69
2022-11-19T07:42:23.968Z,100051.78
2022-11-19T07:44:54.993Z,100046.00
2022-11-19T07:47:25.352Z,100048.47
2022-11-19T07:49:54.399Z,100056.81
2022-11-19T07:52:22.376Z,100057.41
2022-11-19T07:54:51.369Z,100063.84
2022-11-19T07:57:24.601Z,100056.59
2022-11-19T07:59:56.388Z,100047.72
2022-11-19T08:02:29.328Z,100041.94
2022-11-19T08:04:57.402Z,100045.72
2022-11-19T08:07:26.781Z,100052.97
2022-11-19T08:09:55.399Z,100055.66
2022-11-19T08:12:24.677Z,100057.09
2022-11-19T08:14:53.323Z,100058.53
2022-11-19T08:17:40.948Z,100058.78
2022-11-19T08:20:10.827Z,100061.88
2022-11-19T08:22:41.452Z,100067.91
2022-11-19T08:25:10.370Z,100072.66
2022-11-19T08:27:40.408Z,100073.50
2022-11-19T08:30:08.930Z,100065.22
2022-11-19T08:32:42.479Z,100069.81
2022-11-19T08:35:11.344Z,100064.00
2022-11-19T08:37:41.277Z,100071.88
2022-11-19T08:40:09.829Z,100066.94
2022-11-19T08:43:01.229Z,100065.66
2022-11-19T08:45:35.220Z,100076.44
2022-11-19T08:48:07.216Z,100073.97
2022-11-19T08:50:35.381Z,100077.50
2022-11-19T08:53:05.714Z,100074.78
2022-11-19T08:55:34.191Z,100064.41
2022-11-19T08:58:07.877Z,100071.88
2022-11-19T09:00:38.551Z,100066.47
2022-11-19T09:03:10.316Z,100067.69
2022-11-19T09:05:38.405Z,100070.19
2022-11-19T09:08:08.466Z,100069.28
2022-11-19T09:10:38.314Z,100067.50
2022-11-19T09:13:25.313Z,100077.22
2022-11-19T09:15:54.218Z,100075.34
2022-11-19T09:18:22.368Z,100085.31
2022-11-19T09:20:56.096Z,100088.63
2022-11-19T09:23:25.953Z,100096.97
2022-11-19T09:26:03.857Z,100107.75
2022-11-19T09:28:32.806Z,100088.22
2022-11-19T09:31:13.153Z,100076.16
2022-11-19T09:33:43.107Z,100081.41
2022-11-19T09:36:14.415Z,100097.31
2022-11-19T09:38:43.605Z,100096.63
2022-11-19T09:41:33.642Z,100099.97
2022-11-19T09:44:04.394Z,100111.81
2022-11-19T09:46:59.482Z,100119.97
2022-11-19T09:49:49.556Z,100129.34
2022-11-19T09:52:22.925Z,100130.41
2022-11-19T09:54:56.869Z,100118.28
2022-11-19T09:57:46.471Z,100127.88
2022-11-19T10:00:25.448Z,100126.38
2022-11-19T10:02:57.168Z,100136.00
2022-11-19T10:05:39.585Z,100131.13
2022-11-19T10:08:48.447Z,100130.66
2022-11-19T10:11:55.065Z,100119.28
2022-11-19T10:14:44.482Z,100152.09
2022-11-19T10:17:28.725Z,100143.28
2022-11-19T10:20:37.964Z,100142.03
2022-11-19T10:23:25.520Z,100153.50
2022-11-19T10:26:05.431Z,100177.50
2022-11-19T10:28:40.253Z,100175.63
2022-11-19T10:31:37.649Z,100157.75
2022-11-19T10:34:23.607Z,100175.25
2022-11-19T10:37:00.462Z,100179.31
2022-11-19T10:39:58.754Z,100189.88
2022-11-19T10:42:42.513Z,100195.03
2022-11-19T10:45:21.792Z,100181.38
2022-11-19T10:48:12.034Z,100198.72
2022-11-19T10:50:43.203Z,100209.59
2022-11-19T10:53:29.929Z,100229.13
2022-11-19T10:56:04.752Z,100227.88
2022-11-19T10:58:58.400Z,100243.34
2022-11-19T11:01:37.659Z,100241.53
2022-11-19T11:04:15.446Z,100247.44
2022-11-19T11:06:53.358Z,100252.09
2022-11-19T11:09:36.422Z,100240.47
2022-11-19T11:12:33.995Z,100275.81
2022-11-19T11:15:25.310Z,100281.22
2022-11-19T11:18:10.727Z,100292.09
2022-11-19T11:20:45.858Z,100296.31
2022-11-19T11:23:28.790Z,100298.81
2022-11-19T11:26:10.593Z,100303.31
2022-11-19T11:29:05.528Z,100302.72
2022-11-19T11:31:43.544Z,100295.47
2022-11-19T11:34:40.431Z,100307.59
2022-11-19T11:37:13.245Z,100320.84
2022-11-19T11:39:48.263Z,100331.50
2022-11-19T11:42:22.212Z,100343.09
2022-11-19T11:44:58.773Z,100349.56
2022-11-19T11:47:41.193Z,100363.88
2022-11-19T11:50:17.669Z,100390.06
2022-11-19T11:52:54.025Z,100382.78
2022-11-19T11:55:28.331Z,100394.88
2022-11-19T11:58:08.190Z,100408.78
2022-11-19T12:00:47.258Z,100400.91
2022-11-19T12:03:23.937Z,100406.09
2022-11-19T12:06:15.916Z,100395.69
2022-11-19T12:09:09.916Z,100416.91
2022-11-19T12:11:55.806Z,100429.97
2022-11-19T12:14:50.296Z,100442.22
2022-11-19T12:17:48.694Z,100447.19
2022-11-19T12:20:56.014Z,100467.94
2022-11-19T12:24:02.708Z,100484.28
2022-11-19T12:26:50.348Z,100504.34
2022-11-19T12:30:12.647Z,100512.22
2022-11-19T12:33:06.437Z,100515.50
2022-11-19T12:36:05.968Z,100525.25
2022-11-19T12:39:07.484Z,100551.66
2022-11-19T12:41:58.341Z,100554.25
2022-11-19T12:44:52.152Z,100567.13
2022-11-19T12:47:22.084Z,100578.84
2022-11-19T12:50:16.668Z,100582.56
2022-11-19T12:53:21.174Z,100594.19
2022-11-19T12:56:21.824Z,100607.03
2022-11-19T12:58:56.445Z,100620.03
2022-11-19T13:01:38.898Z,100613.53
2022-11-19T13:04:37.595Z,100625.22
2022-11-19T13:07:23.642Z,100661.03
2022-11-19T13:12:54.879Z,100683.38
2022-11-19T13:16:08.359Z,100693.31
2022-11-19T13:18:49.980Z,100705.66
2022-11-19T13:21:35.695Z,100707.06
2022-11-19T13:24:31.845Z,100715.91
2022-11-19T13:27:06.783Z,100724.66
2022-11-19T13:30:38.004Z,100729.47
2022-11-19T13:33:50.863Z,100738.06
2022-11-19T13:36:35.433Z,100748.94
2022-11-19T13:39:26.390Z,100758.56
2022-11-19T13:42:15.913Z,100779.38
2022-11-19T13:44:47.415Z,100780.78
2022-11-19T13:47:29.632Z,100793.03
2022-11-19T13:50:02.853Z,100802.44
2022-11-19T13:52:42.992Z,100810.97
2022-11-19T13:55:48.068Z,100821.06
2022-11-19T13:58:27.088Z,100823.91
2022-11-19T14:01:18.924Z,100833.78
2022-11-19T14:04:29.833Z,100830.94
2022-11-19T14:07:36.196Z,100831.91
2022-11-19T14:10:27.585Z,100848.50
2022-11-19T14:17:04.287Z,100874.13
2022-11-19T14:20:17.257Z,100887.84
2022-11-19T14:23:19.949Z,100889.31
2022-11-19T14:26:12.252Z,100903.81
2022-11-19T14:29:04.423Z,100906.34
2022-11-19T14:32:10.829Z,100921.88
2022-11-19T14:35:19.236Z,100923.88
2022-11-19T14:38:45.479Z,100928.22
2022-11-19T14:41:27.231Z,100951.19
2022-11-19T14:44:32.656Z,100972.72
2022-11-19T14:47:33.853Z,100989.78
2022-11-19T14:50:11.197Z,100999.28
2022-11-19T14:53:03.423Z,100998.94
2022-11-19T14:55:54.870Z,101009.13
2022-11-19T14:58:34.442Z,101028.41
2022-11-19T15:01:22.475Z,101033.44
2022-11-19T15:04:03.690Z,101037.63
2022-11-19T15:06:52.924Z,101043.28
2022-11-19T15:10:15.590Z,101040.25
2022-11-19T15:12:52.368Z,101046.13
2022-11-19T15:15:33.280Z,101046.56
2022-11-19T15:22:09.163Z,101073.16
2022-11-19T15:25:16.503Z,101081.28
2022-11-19T15:28:27.079Z,101075.53
2022-11-19T15:31:28.613Z,101077.28
2022-11-19T15:34:56.277Z,101074.59
2022-11-19T15:56:57.320Z,101141.38
2022-11-19T15:59:44.104Z,101148.25
2022-11-19T16:14:55.945Z,101221.56
2022-11-19T16:17:56.182Z,101225.78
2022-11-19T16:24:02.575Z,101223.25
2022-11-19T16:26:44.447Z,101225.22
2022-11-19T16:29:34.296Z,101220.88
2022-11-19T16:46:36.725Z,101245.00
2022-11-19T16:55:57.388Z,101267.03
2022-11-19T17:01:40.020Z,101266.19
2022-11-19T17:04:17.603Z,101267.59
2022-11-19T17:09:47.782Z,101281.00
2022-11-19T17:13:07.375Z,101305.69
2022-11-19T17:21:38.658Z,101355.03
2022-11-19T17:27:17.106Z,101377.41
2022-11-19T17:30:00.419Z,101387.25
2022-11-19T17:35:52.403Z,101407.47
2022-11-19T17:38:33.549Z,101409.28
2022-11-19T17:41:07.109Z,101418.53
2022-11-19T17:50:01.703Z,101422.84
2022-11-19T18:01:40.914Z,101447.09
2022-11-19T18:04:22.948Z,101450.75
2022-11-19T18:16:36.373Z,101517.88
2022-11-19T18:19:46.413Z,101531.94
2022-11-19T18:22:23.946Z,101544.06
2022-11-19T18:24:54.284Z,101546.00
2022-11-19T18:27:25.740Z,101540.66
2022-11-19T18:30:03.822Z,101539.47
2022-11-19T18:32:49.849Z,101537.94
2022-11-19T18:35:23.623Z,101535.31
2022-11-19T18:38:08.262Z,101535.50
2022-11-19T18:44:06.224Z,101556.97
2022-11-19T18:46:41.718Z,101567.81
2022-11-19T18:49:23.220Z,101574.91
2022-11-19T18:52:03.226Z,101589.41
2022-11-19T19:03:36.121Z,101613.66
2022-11-19T19:06:10.642Z,101623.00
2022-11-19T19:08:40.522Z,101630.38
2022-11-19T19:20:01.139Z,101645.81
2022-11-19T19:22:45.857Z,101638.44
2022-11-19T19:25:18.821Z,101643.00
2022-11-19T19:28:14.432Z,101646.03
2022-11-19T19:31:00.606Z,101649.19
2022-11-19T19:42:19.011Z,101671.84
2022-11-19T19:45:04.825Z,101667.13
2022-11-19T19:47:53.238Z,101666.88
2022-11-19T19:50:36.974Z,101666.28
2022-11-19T19:53:22.942Z,101666.28
2022-11-19T19:56:27.684Z,101663.13
2022-11-19T19:59:03.927Z,101668.94
2022-11-19T20:01:48.549Z,101678.28
2022-11-19T20:04:22.928Z,101672.94
2022-11-19T20:06:54.983Z,101682.03
2022-11-19T20:09:27.425Z,101686.38
2022-11-19T20:12:02.811Z,101695.22
2022-11-19T20:17:20.425Z,101719.72
2022-11-19T20:19:54.306Z,101713.19
2022-11-19T20:22:26.474Z,101719.44
2022-11-19T20:24:57.960Z,101719.31
2022-11-19T20:33:15.893Z,101736.78
2022-11-19T20:35:55.798Z,101725.66
2022-11-19T20:38:30.994Z,101734.84
2022-11-19T20:41:07.024Z,101729.75
2022-11-19T20:44:02.549Z,101727.81
2022-11-19T20:46:34.343Z,101737.75
2022-11-19T20:49:03.854Z,101745.75
2022-11-19T20:51:38.086Z,101747.78
2022-11-19T20:54:14.530Z,101737.44
2022-11-19T20:56:44.193Z,101730.19
2022-11-19T20:59:14.122Z,101709.00
2022-11-19T21:01:44.487Z,101712.50
2022-11-19T21:04:16.750Z,101715.47
2022-11-19T21:06:55.107Z,101708.19
2022-11-19T21:09:26.163Z,101721.28
2022-11-19T21:12:00.194Z,101724.19
2022-11-19T21:14:30.800Z,101726.84
2022-11-19T21:17:03.826Z,101723.34
2022-11-19T21:19:37.113Z,101737.50
2022-11-19T21:22:07.958Z,101742.59
2022-11-19T21:24:37.882Z,101756.91
2022-11-19T21:30:03.150Z,101752.66
2022-11-19T21:38:34.251Z,101792.66
2022-11-19T21:41:07.841Z,101790.50
2022-11-19T21:43:37.434Z,101790.50
2022-11-19T21:46:08.150Z,101790.50
2022-11-19T21:48:39.528Z,101789.50
2022-11-19T21:51:10.386Z,101788.66
2022-11-19T21:53:47.755Z,101800.41
2022-11-19T21:56:18.247Z,101798.72
2022-11-19T21:58:50.255Z,101789.78
2022-11-19T22:01:23.503Z,101784.19
2022-11-19T22:03:52.626Z,101789.56
2022-11-19T22:06:23.314Z,101792.91
2022-11-19T22:08:52.844Z,101773.53
2022-11-19T22:11:34.881Z,101773.22
2022-11-19T22:14:09.579Z,101782.59
2022-11-19T22:16:42.908Z,101783.47
2022-11-19T22:21:58.714Z,101788.97
2022-11-19T22:24:32.379Z,101791.03
2022-11-19T22:27:07.437Z,101804.72
2022-11-19T22:29:38.304Z,101816.28
2022-11-19T22:32:07.368Z,101815.94
2022-11-19T22:34:37.543Z,101805.91
2022-11-19T22:37:07.594Z,101807.59
2022-11-19T22:39:37.268Z,101802.72
2022-11-19T22:42:07.462Z,101804.56
2022-11-19T22:44:38.949Z,101797.72
2022-11-19T22:47:11.508Z,101809.13
2022-11-19T22:49:45.192Z,101827.03
2022-11-19T22:52:17.963Z,101835.38
2022-11-19T22:54:50.133Z,101838.19
2022-11-19T22:57:18.513Z,101841.88
2022-11-19T22:59:50.659Z,101860.28
2022-11-19T23:02:19.280Z,101884.88
2022-11-19T23:04:57.318Z,101887.44
2022-11-19T23:07:26.889Z,101875.31
2022-11-19T23:09:56.629Z,101875.53
2022-11-19T23:12:44.913Z,101880.16
2022-11-19T23:15:13.767Z,101884.53
2022-11-19T23:17:44.700Z,101891.13
2022-11-19T23:20:16.110Z,101907.69
2022-11-19T23:22:47.420Z,101924.63
2022-11-19T23:25:18.579Z,101918.00
2022-11-19T23:27:49.346Z,101921.44
2022-11-19T23:30:22.718Z,101938.06
2022-11-19T23:32:52.468Z,101949.97
2022-11-19T23:38:07.589Z,101942.94
2022-11-19T23:40:40.085Z,101965.75
2022-11-19T23:49:18.100Z,101959.22
2022-11-19T23:51:49.712Z,101943.78
